Webster, NY

12:17 PM EDT on August 30, 2015 (GMT -0400)
WOODHULL RD AT MILLCREEK | | Change Station
CLOSE
Current Station
Personal Weather Station
Location: Webster, NY
Elevation: 328 ft
Nearby Weather Stations

Elev 328 ft 43.25 °N, 77.44 °W | Updated 14 seconds ago

Overcast
Overcast
72.9 °F
Feels Like 73 °F
N
0.0
Wind Variable Wind from NE
Gusts 0.0 mph

Today
High -- | Low -- °F
--% Chance of Precip.
Yesterday
High -- | Low -- °F
Precip. -- in
6:31 AM 7:48 PM
Full, 99% visible
Pressure 30.10 in
Visibility 10.0 miles
Clouds Mostly Cloudy 5500 ft
Heat Index 73 °F
Dew Point 66 °F
Humidity 80%
Rainfall 0.00 in
Snow Depth Not available.
UV 1.0 out of 12
Pollen 9.80 out of 12
Air Quality Not available.
Flu Activity Not available.
METAR KROC 301554Z 30005KT 10SM BKN055 24/16 A3010 RMK AO2 SLP192 T02440156
Pressure 30.10 in
Visibility 10.0 miles
Clouds Mostly Cloudy 5500 ft
Heat Index 73 °F
Dew Point 66 °F
Humidity 80%
Rainfall 0.00 in
Snow Depth Not available.
UV 1.0 out of 12
Pollen 9.80 out of 12
Air Quality Not available.
Flu Activity Not available.
METAR KROC 301554Z 30005KT 10SM BKN055 24/16 A3010 RMK AO2 SLP192 T02440156

10-Day Weather Forecast

×

Almanac

Astronomy

Aug. 30, 2015 Rise Set
Actual Time
Civil Twilight
Nautical Twilight
Astronomical Twilight
Moon
Length of Visible Light
Length of Day
Tomorrow will be .
, % of the Moon is Illuminated

Today's Extremes

State Highs State Lows

Community

WunderPhotos

Upload Photos

1,851,003 photos uploaded!

WunderBlogs® & News

Nearby

Air Quality

  Air Quality AQ Index Pollutant
Not available.

Snow Depth

Station Depth Elevation

Earthquake Activity

City Distance Mag. Time & Date
Minimum magnitude displayed is 2.5.

Coastal Water Temperatures

Place Temperature

Stations

Nearby Weather Stations

Station Location Temp. Windchill Dew Point Humidity Wind Precip. Elev Updated Type